Abraham Lincoln Capital Airport
KSPI : now visible

Airfield :











YOU CAN JOIN US ON...

 
LOGIN :

Register | Disclaimer

   EN    FR    IT 

 









Legend :    VFR   Marginal VFR   IFR   Intensive IFR   Very Intensive IFR
Visi :
Ceiling :
>= 8 km
>= 3000ft
5 to 8 km
1000 to 3000 ft
1500m to 5 km
500 to 1000 ft
800 to 1500m
200 to 500 ft
< 800m
< 200 ft
Symbols :   Thunderstorms  Fog  Heavy snow  Heavy precipitations  Wind > 20 kt






- Airport Elevation : 598 ft
- IATA code : SPI


KSPI - Abraham Lincoln Capital

CURRENT METAR :
  • 152352Z 00000KT 6SM -SN BR OVC017 00/M01 A2955 RMK AO2 SNE30B45 SLP010 P0003 60006 T00001011 10022 20000 51026

EXPIRED METARs :
  • 152332Z 00000KT 8SM FEW010 BKN015 OVC019 00/M01 A2954 RMK AO2 SNE30 P0003 T00001011
  • 152316Z 23003KT 3SM -SN BR BKN011 OVC018 00/M01 A2953 RMK AO2 P0003 T00001011
  • 152303Z 00000KT 1SM R04/P6000FT -SN BR OVC009 00/M01 A2953 RMK AO2 P0002 T00001006
  • 152252Z 27004KT 3/4SM R04/P6000FT -SN BR SCT006 BKN011 OVC015 00/M01 A2953 RMK AO2 SLP005 P0002 T00001006
  • 152244Z 23004KT 2 1/2SM -SN BR FEW008 BKN013 OVC027 01/M01 A2953 RMK AO2 P0001 T00061011
  • 152235Z 17006KT 2 1/2SM -SN BR BKN013 BKN019 OVC027 01/M01 A2952 RMK AO2 P0001 T00061006
  • 152226Z 16004KT 3SM -SN BR BKN013 OVC025 01/M01 A2951 RMK AO2 P0001 T00111006
  • 152152Z 18006KT 4SM -SN BR SCT016 BKN045 OVC050 01/M01 A2950 RMK AO2 SNE01B48 SLP992 P0000 T00111011
  • 152138Z 20008KT 10SM SCT017 BKN048 OVC055 02/M01 A2949 RMK AO2 SNE01 P0000 T00171011

TAF KSPI
Valid from the 16 at 00:00 until the 17 at 00:00 UTC


152320Z 1600/1624 VRB04KT 6SM -SHSN SCT009 OVC012
TEMPO 1600/1602 2SM -SHSN
FM160200 33005KT P6SM OVC009
FM161000 29011KT P6SM VCSH BKN008 OVC012
TEMPO 1610/1614 2SM -SN
FM161500 29013G21KT P6SM VCSH OVC008
KZKC FIR / North America



MET'MAP, your aeronautical weather chart ! - Copyright ORBIFLY December 2007 - Disclaimer

ORBIFLY MET'MAP TEAM :

Programming & Development : Alexandra Zaïnal
Concept & original design : Baudouin d'Aumeries
Assistance for programming : Marc-Olivier Méhu
Technical & hardware support : Manuel Goepfert

Contact : metmap@orbifly.com




SOURCES & CREDITS :

   NOAA       Earth
Advisory